sensor_id;sensor_type;location;lat;lon;timestamp;temperature;humidity
10512;DHT22;5304;48.604;2.096;2022-09-12T00:00:12;15.90;99.90
10512;DHT22;5304;48.604;2.096;2022-09-12T00:02:57;15.80;99.90
10512;DHT22;5304;48.604;2.096;2022-09-12T00:05:43;15.70;99.90
10512;DHT22;5304;48.604;2.096;2022-09-12T00:08:28;15.70;99.90
10512;DHT22;5304;48.604;2.096;2022-09-12T00:11:13;15.70;99.90
10512;DHT22;5304;48.604;2.096;2022-09-12T00:13:59;15.80;99.90
10512;DHT22;5304;48.604;2.096;2022-09-12T00:16:44;15.90;99.90
10512;DHT22;5304;48.604;2.096;2022-09-12T00:19:29;15.80;99.90
10512;DHT22;5304;48.604;2.096;2022-09-12T00:22:14;15.70;99.90
10512;DHT22;5304;48.604;2.096;2022-09-12T00:24:58;15.60;99.90
10512;DHT22;5304;48.604;2.096;2022-09-12T00:27:43;15.60;99.90
10512;DHT22;5304;48.604;2.096;2022-09-12T00:30:28;15.60;99.90
10512;DHT22;5304;48.604;2.096;2022-09-12T00:33:14;15.60;99.90
10512;DHT22;5304;48.604;2.096;2022-09-12T00:36:04;15.60;99.90
10512;DHT22;5304;48.604;2.096;2022-09-12T00:38:49;15.60;99.90
10512;DHT22;5304;48.604;2.096;2022-09-12T00:41:37;15.50;99.90
10512;DHT22;5304;48.604;2.096;2022-09-12T00:47:20;15.50;99.90
10512;DHT22;5304;48.604;2.096;2022-09-12T00:50:09;15.60;99.90
10512;DHT22;5304;48.604;2.096;2022-09-12T00:53:07;15.70;99.90
10512;DHT22;5304;48.604;2.096;2022-09-12T00:55:52;15.70;99.90
10512;DHT22;5304;48.604;2.096;2022-09-12T00:58:46;15.60;99.90
10512;DHT22;5304;48.604;2.096;2022-09-12T01:01:33;15.50;99.90
10512;DHT22;5304;48.604;2.096;2022-09-12T01:04:20;15.50;99.90
10512;DHT22;5304;48.604;2.096;2022-09-12T01:07:06;15.40;99.90
10512;DHT22;5304;48.604;2.096;2022-09-12T01:09:51;15.40;99.90
10512;DHT22;5304;48.604;2.096;2022-09-12T01:12:38;15.40;99.90
10512;DHT22;5304;48.604;2.096;2022-09-12T01:15:23;15.30;99.90
10512;DHT22;5304;48.604;2.096;2022-09-12T01:24:17;15.10;99.90
10512;DHT22;5304;48.604;2.096;2022-09-12T01:30:14;15.00;99.90
10512;DHT22;5304;48.604;2.096;2022-09-12T01:36:31;14.90;99.90
10512;DHT22;5304;48.604;2.096;2022-09-12T01:39:28;14.80;99.90
10512;DHT22;5304;48.604;2.096;2022-09-12T01:42:27;14.70;99.90
10512;DHT22;5304;48.604;2.096;2022-09-12T01:45:25;14.70;99.90
10512;DHT22;5304;48.604;2.096;2022-09-12T01:48:29;14.90;99.90
10512;DHT22;5304;48.604;2.096;2022-09-12T01:51:26;14.90;99.90
10512;DHT22;5304;48.604;2.096;2022-09-12T01:54:28;14.80;99.90
10512;DHT22;5304;48.604;2.096;2022-09-12T01:57:26;14.70;99.90
10512;DHT22;5304;48.604;2.096;2022-09-12T02:00:12;14.60;99.90
10512;DHT22;5304;48.604;2.096;2022-09-12T02:03:02;14.60;99.90
10512;DHT22;5304;48.604;2.096;2022-09-12T02:09:55;14.50;99.90
10512;DHT22;5304;48.604;2.096;2022-09-12T02:12:25;14.40;99.90
10512;DHT22;5304;48.604;2.096;2022-09-12T02:15:14;14.30;99.90
10512;DHT22;5304;48.604;2.096;2022-09-12T02:18:00;14.30;99.90
10512;DHT22;5304;48.604;2.096;2022-09-12T02:20:48;14.20;99.90
10512;DHT22;5304;48.604;2.096;2022-09-12T02:23:45;14.40;99.90
10512;DHT22;5304;48.604;2.096;2022-09-12T02:26:36;14.40;99.90
10512;DHT22;5304;48.604;2.096;2022-09-12T02:29:24;14.40;99.90
10512;DHT22;5304;48.604;2.096;2022-09-12T02:32:23;14.40;99.90
10512;DHT22;5304;48.604;2.096;2022-09-12T02:35:20;14.20;99.90
10512;DHT22;5304;48.604;2.096;2022-09-12T02:38:09;14.20;99.90
10512;DHT22;5304;48.604;2.096;2022-09-12T02:40:56;14.20;99.90
10512;DHT22;5304;48.604;2.096;2022-09-12T02:43:41;14.20;99.90
10512;DHT22;5304;48.604;2.096;2022-09-12T02:46:39;14.10;99.90
10512;DHT22;5304;48.604;2.096;2022-09-12T02:49:25;14.10;99.90
10512;DHT22;5304;48.604;2.096;2022-09-12T02:52:09;14.00;99.90
10512;DHT22;5304;48.604;2.096;2022-09-12T02:54:54;14.20;99.90
10512;DHT22;5304;48.604;2.096;2022-09-12T02:57:40;14.30;99.90
10512;DHT22;5304;48.604;2.096;2022-09-12T03:00:25;14.20;99.90
10512;DHT22;5304;48.604;2.096;2022-09-12T03:03:43;14.30;99.90
10512;DHT22;5304;48.604;2.096;2022-09-12T03:13:03;14.50;99.90
10512;DHT22;5304;48.604;2.096;2022-09-12T03:16:47;14.50;99.90
10512;DHT22;5304;48.604;2.096;2022-09-12T03:22:11;14.60;99.90
10512;DHT22;5304;48.604;2.096;2022-09-12T03:28:13;14.30;99.90
10512;DHT22;5304;48.604;2.096;2022-09-12T03:30:59;14.40;99.90
10512;DHT22;5304;48.604;2.096;2022-09-12T03:33:44;14.20;99.90
10512;DHT22;5304;48.604;2.096;2022-09-12T03:36:29;14.00;99.90
10512;DHT22;5304;48.604;2.096;2022-09-12T03:39:14;13.90;99.90
10512;DHT22;5304;48.604;2.096;2022-09-12T03:41:59;13.80;99.90
10512;DHT22;5304;48.604;2.096;2022-09-12T03:44:43;13.60;99.90
10512;DHT22;5304;48.604;2.096;2022-09-12T03:47:28;13.50;99.90
10512;DHT22;5304;48.604;2.096;2022-09-12T03:50:12;13.50;99.90
10512;DHT22;5304;48.604;2.096;2022-09-12T03:53:01;13.40;99.90
10512;DHT22;5304;48.604;2.096;2022-09-12T03:55:45;13.30;99.90
10512;DHT22;5304;48.604;2.096;2022-09-12T03:58:30;13.30;99.90
10512;DHT22;5304;48.604;2.096;2022-09-12T04:01:18;13.20;99.90
10512;DHT22;5304;48.604;2.096;2022-09-12T04:04:02;13.20;99.90
10512;DHT22;5304;48.604;2.096;2022-09-12T04:06:46;13.10;99.90
10512;DHT22;5304;48.604;2.096;2022-09-12T04:09:31;13.10;99.90
10512;DHT22;5304;48.604;2.096;2022-09-12T04:12:15;13.10;99.90
10512;DHT22;5304;48.604;2.096;2022-09-12T04:15:00;13.10;99.90
10512;DHT22;5304;48.604;2.096;2022-09-12T04:17:44;13.00;99.90
10512;DHT22;5304;48.604;2.096;2022-09-12T04:20:28;13.00;99.90
10512;DHT22;5304;48.604;2.096;2022-09-12T04:23:13;13.00;99.90
10512;DHT22;5304;48.604;2.096;2022-09-12T04:25:59;13.00;99.90
10512;DHT22;5304;48.604;2.096;2022-09-12T04:28:44;13.00;99.90
10512;DHT22;5304;48.604;2.096;2022-09-12T04:31:29;13.10;99.90
10512;DHT22;5304;48.604;2.096;2022-09-12T04:34:14;13.10;99.90
10512;DHT22;5304;48.604;2.096;2022-09-12T04:36:58;13.10;99.90
10512;DHT22;5304;48.604;2.096;2022-09-12T04:39:43;13.10;99.90
10512;DHT22;5304;48.604;2.096;2022-09-12T04:42:28;13.20;99.90
10512;DHT22;5304;48.604;2.096;2022-09-12T04:45:13;13.10;99.90
10512;DHT22;5304;48.604;2.096;2022-09-12T04:47:58;13.00;99.90
10512;DHT22;5304;48.604;2.096;2022-09-12T04:50:43;12.90;99.90
10512;DHT22;5304;48.604;2.096;2022-09-12T04:53:27;12.80;99.90
10512;DHT22;5304;48.604;2.096;2022-09-12T04:56:11;12.80;99.90
10512;DHT22;5304;48.604;2.096;2022-09-12T04:58:58;12.80;99.90
10512;DHT22;5304;48.604;2.096;2022-09-12T05:01:43;12.70;99.90
10512;DHT22;5304;48.604;2.096;2022-09-12T05:04:27;12.70;99.90
10512;DHT22;5304;48.604;2.096;2022-09-12T05:07:12;12.70;99.90
10512;DHT22;5304;48.604;2.096;2022-09-12T05:09:56;12.80;99.90
10512;DHT22;5304;48.604;2.096;2022-09-12T05:12:41;12.80;99.90
10512;DHT22;5304;48.604;2.096;2022-09-12T05:15:25;12.90;99.90
10512;DHT22;5304;48.604;2.096;2022-09-12T05:18:10;12.80;99.90
10512;DHT22;5304;48.604;2.096;2022-09-12T05:20:54;12.80;99.90
10512;DHT22;5304;48.604;2.096;2022-09-12T05:23:39;12.80;99.90
10512;DHT22;5304;48.604;2.096;2022-09-12T05:26:24;12.70;99.90
10512;DHT22;5304;48.604;2.096;2022-09-12T05:29:08;12.60;99.90
10512;DHT22;5304;48.604;2.096;2022-09-12T05:31:53;12.60;99.90
10512;DHT22;5304;48.604;2.096;2022-09-12T05:34:38;12.60;99.90
10512;DHT22;5304;48.604;2.096;2022-09-12T05:37:23;12.50;99.90
10512;DHT22;5304;48.604;2.096;2022-09-12T05:40:08;12.60;99.90
10512;DHT22;5304;48.604;2.096;2022-09-12T05:42:52;12.60;99.90
10512;DHT22;5304;48.604;2.096;2022-09-12T05:45:38;12.60;99.90
10512;DHT22;5304;48.604;2.096;2022-09-12T05:48:22;12.60;99.90
10512;DHT22;5304;48.604;2.096;2022-09-12T05:51:18;12.60;99.90
10512;DHT22;5304;48.604;2.096;2022-09-12T05:54:04;12.70;99.90
10512;DHT22;5304;48.604;2.096;2022-09-12T05:56:49;12.70;99.90
10512;DHT22;5304;48.604;2.096;2022-09-12T05:59:34;12.70;99.90
10512;DHT22;5304;48.604;2.096;2022-09-12T06:02:18;12.70;99.90
10512;DHT22;5304;48.604;2.096;2022-09-12T06:05:02;12.60;99.90
10512;DHT22;5304;48.604;2.096;2022-09-12T06:07:47;12.60;99.90
10512;DHT22;5304;48.604;2.096;2022-09-12T06:10:31;12.70;99.90
10512;DHT22;5304;48.604;2.096;2022-09-12T06:13:17;12.70;99.90
10512;DHT22;5304;48.604;2.096;2022-09-12T06:16:06;12.80;99.90
10512;DHT22;5304;48.604;2.096;2022-09-12T06:18:53;12.90;99.90
10512;DHT22;5304;48.604;2.096;2022-09-12T06:21:38;13.00;99.90
10512;DHT22;5304;48.604;2.096;2022-09-12T06:24:23;13.20;99.90
10512;DHT22;5304;48.604;2.096;2022-09-12T06:27:07;13.50;99.90
10512;DHT22;5304;48.604;2.096;2022-09-12T06:29:52;13.90;99.90
10512;DHT22;5304;48.604;2.096;2022-09-12T06:32:36;14.40;99.90
10512;DHT22;5304;48.604;2.096;2022-09-12T06:35:21;14.60;99.90
10512;DHT22;5304;48.604;2.096;2022-09-12T06:38:06;14.80;99.90
10512;DHT22;5304;48.604;2.096;2022-09-12T06:40:51;14.80;99.90
10512;DHT22;5304;48.604;2.096;2022-09-12T06:43:35;14.70;99.90
10512;DHT22;5304;48.604;2.096;2022-09-12T06:46:21;14.60;99.90
10512;DHT22;5304;48.604;2.096;2022-09-12T06:49:06;14.60;99.90
10512;DHT22;5304;48.604;2.096;2022-09-12T06:51:51;14.70;99.90
10512;DHT22;5304;48.604;2.096;2022-09-12T06:54:35;15.00;99.90
10512;DHT22;5304;48.604;2.096;2022-09-12T06:57:20;15.20;99.90
10512;DHT22;5304;48.604;2.096;2022-09-12T07:00:05;15.40;99.90
10512;DHT22;5304;48.604;2.096;2022-09-12T07:02:53;16.10;99.90
10512;DHT22;5304;48.604;2.096;2022-09-12T07:05:39;17.40;99.90
10512;DHT22;5304;48.604;2.096;2022-09-12T07:08:24;18.20;99.90
10512;DHT22;5304;48.604;2.096;2022-09-12T07:14:00;18.70;99.90
10512;DHT22;5304;48.604;2.096;2022-09-12T07:16:45;18.90;99.90
10512;DHT22;5304;48.604;2.096;2022-09-12T07:19:29;18.90;99.90
10512;DHT22;5304;48.604;2.096;2022-09-12T07:22:13;19.50;99.90
10512;DHT22;5304;48.604;2.096;2022-09-12T07:24:58;19.80;99.90
10512;DHT22;5304;48.604;2.096;2022-09-12T07:27:42;21.20;99.90
10512;DHT22;5304;48.604;2.096;2022-09-12T07:30:26;22.40;99.90
10512;DHT22;5304;48.604;2.096;2022-09-12T07:33:11;23.90;99.90
10512;DHT22;5304;48.604;2.096;2022-09-12T07:36:04;24.30;99.90
10512;DHT22;5304;48.604;2.096;2022-09-12T07:38:53;26.10;99.90
10512;DHT22;5304;48.604;2.096;2022-09-12T07:41:38;27.30;99.90
10512;DHT22;5304;48.604;2.096;2022-09-12T07:44:24;27.30;99.90
10512;DHT22;5304;48.604;2.096;2022-09-12T07:47:08;28.00;99.90
10512;DHT22;5304;48.604;2.096;2022-09-12T07:49:52;28.60;99.90
10512;DHT22;5304;48.604;2.096;2022-09-12T07:52:37;29.20;99.90
10512;DHT22;5304;48.604;2.096;2022-09-12T07:55:22;28.90;99.90
10512;DHT22;5304;48.604;2.096;2022-09-12T07:58:07;28.80;99.90
10512;DHT22;5304;48.604;2.096;2022-09-12T08:00:52;29.10;99.90
10512;DHT22;5304;48.604;2.096;2022-09-12T08:03:37;29.60;99.90
10512;DHT22;5304;48.604;2.096;2022-09-12T08:06:22;30.10;99.90
10512;DHT22;5304;48.604;2.096;2022-09-12T08:09:07;29.90;99.90
10512;DHT22;5304;48.604;2.096;2022-09-12T08:11:52;29.20;99.90
10512;DHT22;5304;48.604;2.096;2022-09-12T08:14:37;28.80;99.90
10512;DHT22;5304;48.604;2.096;2022-09-12T08:17:22;29.00;99.90
10512;DHT22;5304;48.604;2.096;2022-09-12T08:20:06;29.10;99.90
10512;DHT22;5304;48.604;2.096;2022-09-12T08:22:52;29.10;99.90
10512;DHT22;5304;48.604;2.096;2022-09-12T08:25:37;28.30;99.90
10512;DHT22;5304;48.604;2.096;2022-09-12T08:28:22;29.00;99.90
10512;DHT22;5304;48.604;2.096;2022-09-12T08:31:10;29.60;99.90
10512;DHT22;5304;48.604;2.096;2022-09-12T08:33:56;29.70;99.90
10512;DHT22;5304;48.604;2.096;2022-09-12T08:36:41;29.40;99.90
10512;DHT22;5304;48.604;2.096;2022-09-12T08:39:25;28.90;99.90
10512;DHT22;5304;48.604;2.096;2022-09-12T08:42:16;29.00;99.90
10512;DHT22;5304;48.604;2.096;2022-09-12T08:45:18;28.90;99.90
10512;DHT22;5304;48.604;2.096;2022-09-12T08:48:08;28.10;99.90
10512;DHT22;5304;48.604;2.096;2022-09-12T08:50:54;27.00;99.90
10512;DHT22;5304;48.604;2.096;2022-09-12T08:53:39;27.40;99.90
10512;DHT22;5304;48.604;2.096;2022-09-12T08:56:26;27.40;99.90
10512;DHT22;5304;48.604;2.096;2022-09-12T08:59:12;28.10;99.90
10512;DHT22;5304;48.604;2.096;2022-09-12T09:01:58;28.40;99.90
10512;DHT22;5304;48.604;2.096;2022-09-12T09:04:50;27.60;99.90
10512;DHT22;5304;48.604;2.096;2022-09-12T09:14:02;25.70;99.90
10512;DHT22;5304;48.604;2.096;2022-09-12T09:17:10;25.90;99.90
10512;DHT22;5304;48.604;2.096;2022-09-12T09:20:09;26.00;99.90
10512;DHT22;5304;48.604;2.096;2022-09-12T09:23:02;25.80;99.90
10512;DHT22;5304;48.604;2.096;2022-09-12T09:28:51;25.40;99.90
10512;DHT22;5304;48.604;2.096;2022-09-12T09:31:37;25.40;99.90
10512;DHT22;5304;48.604;2.096;2022-09-12T09:34:25;25.30;99.90
10512;DHT22;5304;48.604;2.096;2022-09-12T09:40:20;25.40;99.90
10512;DHT22;5304;48.604;2.096;2022-09-12T09:43:18;25.50;99.90
10512;DHT22;5304;48.604;2.096;2022-09-12T09:46:06;25.50;99.90
10512;DHT22;5304;48.604;2.096;2022-09-12T09:48:51;25.40;99.90
10512;DHT22;5304;48.604;2.096;2022-09-12T09:51:38;25.10;99.90
10512;DHT22;5304;48.604;2.096;2022-09-12T09:54:30;25.40;99.90
10512;DHT22;5304;48.604;2.096;2022-09-12T10:00:24;25.80;99.90
10512;DHT22;5304;48.604;2.096;2022-09-12T10:06:00;25.20;99.90
10512;DHT22;5304;48.604;2.096;2022-09-12T10:08:46;25.20;99.90
10512;DHT22;5304;48.604;2.096;2022-09-12T10:11:31;25.30;99.90
10512;DHT22;5304;48.604;2.096;2022-09-12T10:14:40;25.60;99.90
10512;DHT22;5304;48.604;2.096;2022-09-12T10:17:30;25.90;99.90
10512;DHT22;5304;48.604;2.096;2022-09-12T10:20:39;26.30;99.90
10512;DHT22;5304;48.604;2.096;2022-09-12T10:23:35;26.30;99.90
10512;DHT22;5304;48.604;2.096;2022-09-12T10:26:20;26.50;99.90
10512;DHT22;5304;48.604;2.096;2022-09-12T10:29:16;26.80;99.90
10512;DHT22;5304;48.604;2.096;2022-09-12T10:32:06;26.50;99.90
10512;DHT22;5304;48.604;2.096;2022-09-12T10:34:55;26.60;99.90
10512;DHT22;5304;48.604;2.096;2022-09-12T10:38:34;26.80;99.90
10512;DHT22;5304;48.604;2.096;2022-09-12T10:41:07;26.90;99.90
10512;DHT22;5304;48.604;2.096;2022-09-12T10:43:52;26.70;99.90
10512;DHT22;5304;48.604;2.096;2022-09-12T10:46:48;26.50;99.90
10512;DHT22;5304;48.604;2.096;2022-09-12T10:49:33;26.80;99.90
10512;DHT22;5304;48.604;2.096;2022-09-12T10:52:23;27.00;99.90
10512;DHT22;5304;48.604;2.096;2022-09-12T10:55:13;26.70;99.90
10512;DHT22;5304;48.604;2.096;2022-09-12T10:58:22;26.70;99.90
10512;DHT22;5304;48.604;2.096;2022-09-12T11:29:50;27.10;99.90
10512;DHT22;5304;48.604;2.096;2022-09-12T11:33:02;27.20;99.90
10512;DHT22;5304;48.604;2.096;2022-09-12T11:35:50;27.60;99.90
10512;DHT22;5304;48.604;2.096;2022-09-12T11:41:46;28.00;99.90
10512;DHT22;5304;48.604;2.096;2022-09-12T11:44:42;27.60;99.90
10512;DHT22;5304;48.604;2.096;2022-09-12T11:47:31;27.50;99.90
10512;DHT22;5304;48.604;2.096;2022-09-12T11:50:25;27.70;99.90
10512;DHT22;5304;48.604;2.096;2022-09-12T11:53:13;27.90;99.90
10512;DHT22;5304;48.604;2.096;2022-09-12T11:56:04;28.00;99.90
10512;DHT22;5304;48.604;2.096;2022-09-12T11:59:16;27.60;99.90
10512;DHT22;5304;48.604;2.096;2022-09-12T12:02:03;27.50;99.90
10512;DHT22;5304;48.604;2.096;2022-09-12T12:05:05;27.60;99.90
10512;DHT22;5304;48.604;2.096;2022-09-12T12:08:00;27.70;99.90
10512;DHT22;5304;48.604;2.096;2022-09-12T12:16:31;27.90;99.90
10512;DHT22;5304;48.604;2.096;2022-09-12T12:22:14;27.60;99.90
10512;DHT22;5304;48.604;2.096;2022-09-12T12:28:00;27.70;99.90
10512;DHT22;5304;48.604;2.096;2022-09-12T12:36:34;27.80;99.90
10512;DHT22;5304;48.604;2.096;2022-09-12T12:48:14;27.60;99.90
10512;DHT22;5304;48.604;2.096;2022-09-12T12:51:26;27.50;99.90
10512;DHT22;5304;48.604;2.096;2022-09-12T12:54:33;27.40;99.90
10512;DHT22;5304;48.604;2.096;2022-09-12T13:00:39;27.70;99.90
10512;DHT22;5304;48.604;2.096;2022-09-12T13:03:29;27.90;99.90
10512;DHT22;5304;48.604;2.096;2022-09-12T13:06:34;28.10;99.90
10512;DHT22;5304;48.604;2.096;2022-09-12T13:09:24;28.40;99.90
10512;DHT22;5304;48.604;2.096;2022-09-12T13:12:34;28.40;99.90
10512;DHT22;5304;48.604;2.096;2022-09-12T13:15:47;28.40;99.90
10512;DHT22;5304;48.604;2.096;2022-09-12T13:21:25;28.30;99.90
10512;DHT22;5304;48.604;2.096;2022-09-12T13:24:14;28.30;99.90
10512;DHT22;5304;48.604;2.096;2022-09-12T13:27:00;28.00;99.90
10512;DHT22;5304;48.604;2.096;2022-09-12T13:29:45;28.00;99.90
10512;DHT22;5304;48.604;2.096;2022-09-12T13:32:30;27.90;99.90
10512;DHT22;5304;48.604;2.096;2022-09-12T13:44:16;28.10;99.90
10512;DHT22;5304;48.604;2.096;2022-09-12T13:47:02;28.10;99.90
10512;DHT22;5304;48.604;2.096;2022-09-12T13:49:47;28.00;99.90
10512;DHT22;5304;48.604;2.096;2022-09-12T13:52:34;28.00;99.90
10512;DHT22;5304;48.604;2.096;2022-09-12T13:55:38;28.00;99.90
10512;DHT22;5304;48.604;2.096;2022-09-12T13:58:27;28.00;99.90
10512;DHT22;5304;48.604;2.096;2022-09-12T14:01:14;27.80;99.90
10512;DHT22;5304;48.604;2.096;2022-09-12T14:03:58;27.80;99.90
10512;DHT22;5304;48.604;2.096;2022-09-12T14:09:56;28.00;99.90
10512;DHT22;5304;48.604;2.096;2022-09-12T14:12:41;28.10;99.90
10512;DHT22;5304;48.604;2.096;2022-09-12T14:15:31;28.30;99.90
10512;DHT22;5304;48.604;2.096;2022-09-12T14:18:35;28.30;99.90
10512;DHT22;5304;48.604;2.096;2022-09-12T14:21:31;28.20;99.90
10512;DHT22;5304;48.604;2.096;2022-09-12T14:24:17;28.20;99.90
10512;DHT22;5304;48.604;2.096;2022-09-12T14:27:03;28.30;99.90
10512;DHT22;5304;48.604;2.096;2022-09-12T14:29:49;28.40;99.90
10512;DHT22;5304;48.604;2.096;2022-09-12T14:32:36;28.40;99.90
10512;DHT22;5304;48.604;2.096;2022-09-12T14:35:20;28.40;99.90
10512;DHT22;5304;48.604;2.096;2022-09-12T14:38:30;28.50;99.90
10512;DHT22;5304;48.604;2.096;2022-09-12T14:41:12;28.50;99.90
10512;DHT22;5304;48.604;2.096;2022-09-12T14:44:13;28.60;99.90
10512;DHT22;5304;48.604;2.096;2022-09-12T14:47:20;28.30;99.90
10512;DHT22;5304;48.604;2.096;2022-09-12T14:50:15;28.10;99.90
10512;DHT22;5304;48.604;2.096;2022-09-12T14:56:08;28.10;99.90
10512;DHT22;5304;48.604;2.096;2022-09-12T15:10:39;27.90;99.90
10512;DHT22;5304;48.604;2.096;2022-09-12T15:13:25;28.00;99.90
10512;DHT22;5304;48.604;2.096;2022-09-12T15:16:11;28.10;99.90
10512;DHT22;5304;48.604;2.096;2022-09-12T15:18:55;28.00;99.90
10512;DHT22;5304;48.604;2.096;2022-09-12T15:21:40;28.00;99.90
10512;DHT22;5304;48.604;2.096;2022-09-12T15:24:24;27.90;99.90
10512;DHT22;5304;48.604;2.096;2022-09-12T15:27:12;27.80;99.90
10512;DHT22;5304;48.604;2.096;2022-09-12T15:29:56;27.70;99.90
10512;DHT22;5304;48.604;2.096;2022-09-12T15:32:42;27.60;99.90
10512;DHT22;5304;48.604;2.096;2022-09-12T15:35:28;27.50;99.90
10512;DHT22;5304;48.604;2.096;2022-09-12T15:38:15;27.50;99.90
10512;DHT22;5304;48.604;2.096;2022-09-12T15:41:00;27.50;99.90
10512;DHT22;5304;48.604;2.096;2022-09-12T15:43:46;27.50;99.90
10512;DHT22;5304;48.604;2.096;2022-09-12T15:46:30;27.40;99.90
10512;DHT22;5304;48.604;2.096;2022-09-12T15:49:15;27.30;99.90
10512;DHT22;5304;48.604;2.096;2022-09-12T15:52:00;27.20;99.90
10512;DHT22;5304;48.604;2.096;2022-09-12T15:54:44;27.10;99.90
10512;DHT22;5304;48.604;2.096;2022-09-12T15:57:29;27.00;99.90
10512;DHT22;5304;48.604;2.096;2022-09-12T16:00:15;27.00;99.90
10512;DHT22;5304;48.604;2.096;2022-09-12T16:03:00;26.90;99.90
10512;DHT22;5304;48.604;2.096;2022-09-12T16:05:44;26.90;99.90
10512;DHT22;5304;48.604;2.096;2022-09-12T16:08:30;26.90;99.90
10512;DHT22;5304;48.604;2.096;2022-09-12T16:11:20;26.90;99.90
10512;DHT22;5304;48.604;2.096;2022-09-12T16:14:05;26.80;99.90
10512;DHT22;5304;48.604;2.096;2022-09-12T16:16:53;26.90;99.90
10512;DHT22;5304;48.604;2.096;2022-09-12T16:19:37;26.90;99.90
10512;DHT22;5304;48.604;2.096;2022-09-12T16:22:22;26.80;99.90
10512;DHT22;5304;48.604;2.096;2022-09-12T16:25:08;26.80;99.90
10512;DHT22;5304;48.604;2.096;2022-09-12T16:27:52;26.80;99.90
10512;DHT22;5304;48.604;2.096;2022-09-12T16:30:37;26.70;99.90
10512;DHT22;5304;48.604;2.096;2022-09-12T16:33:21;26.60;99.90
10512;DHT22;5304;48.604;2.096;2022-09-12T16:36:08;26.60;99.90
10512;DHT22;5304;48.604;2.096;2022-09-12T16:38:53;26.50;99.90
10512;DHT22;5304;48.604;2.096;2022-09-12T16:41:37;26.50;99.90
10512;DHT22;5304;48.604;2.096;2022-09-12T16:44:25;26.50;99.90
10512;DHT22;5304;48.604;2.096;2022-09-12T16:47:09;26.50;99.90
10512;DHT22;5304;48.604;2.096;2022-09-12T16:49:54;26.50;99.90
10512;DHT22;5304;48.604;2.096;2022-09-12T16:52:40;26.50;99.90
10512;DHT22;5304;48.604;2.096;2022-09-12T16:55:25;26.40;99.90
10512;DHT22;5304;48.604;2.096;2022-09-12T16:58:11;26.40;99.90
10512;DHT22;5304;48.604;2.096;2022-09-12T17:00:59;26.40;99.90
10512;DHT22;5304;48.604;2.096;2022-09-12T17:03:44;26.30;99.90
10512;DHT22;5304;48.604;2.096;2022-09-12T17:06:31;26.20;99.90
10512;DHT22;5304;48.604;2.096;2022-09-12T17:09:16;26.10;99.90
10512;DHT22;5304;48.604;2.096;2022-09-12T17:12:02;26.00;99.90
10512;DHT22;5304;48.604;2.096;2022-09-12T17:14:47;25.90;99.90
10512;DHT22;5304;48.604;2.096;2022-09-12T17:17:31;25.90;99.90
10512;DHT22;5304;48.604;2.096;2022-09-12T17:20:15;25.80;99.90
10512;DHT22;5304;48.604;2.096;2022-09-12T17:23:01;25.70;99.90
10512;DHT22;5304;48.604;2.096;2022-09-12T17:25:49;25.70;99.90
10512;DHT22;5304;48.604;2.096;2022-09-12T17:28:38;25.60;99.90
10512;DHT22;5304;48.604;2.096;2022-09-12T17:31:23;25.50;99.90
10512;DHT22;5304;48.604;2.096;2022-09-12T17:34:07;25.40;99.90
10512;DHT22;5304;48.604;2.096;2022-09-12T17:36:52;25.40;99.90
10512;DHT22;5304;48.604;2.096;2022-09-12T17:39:36;25.30;99.90
10512;DHT22;5304;48.604;2.096;2022-09-12T17:42:20;25.20;99.90
10512;DHT22;5304;48.604;2.096;2022-09-12T17:45:07;25.10;99.90
10512;DHT22;5304;48.604;2.096;2022-09-12T17:47:52;25.00;99.90
10512;DHT22;5304;48.604;2.096;2022-09-12T17:50:38;25.00;99.90
10512;DHT22;5304;48.604;2.096;2022-09-12T17:53:23;24.90;99.90
10512;DHT22;5304;48.604;2.096;2022-09-12T17:56:09;24.80;99.90
10512;DHT22;5304;48.604;2.096;2022-09-12T17:58:55;24.60;99.90
10512;DHT22;5304;48.604;2.096;2022-09-12T18:01:40;24.50;99.90
10512;DHT22;5304;48.604;2.096;2022-09-12T18:04:44;24.40;99.90
10512;DHT22;5304;48.604;2.096;2022-09-12T18:07:29;24.40;99.90
10512;DHT22;5304;48.604;2.096;2022-09-12T18:10:13;24.30;99.90
10512;DHT22;5304;48.604;2.096;2022-09-12T18:12:57;24.20;99.90
10512;DHT22;5304;48.604;2.096;2022-09-12T18:15:42;24.10;99.90
10512;DHT22;5304;48.604;2.096;2022-09-12T18:18:26;23.90;99.90
10512;DHT22;5304;48.604;2.096;2022-09-12T18:21:11;23.80;99.90
10512;DHT22;5304;48.604;2.096;2022-09-12T18:23:56;23.70;99.90
10512;DHT22;5304;48.604;2.096;2022-09-12T18:26:44;23.50;99.90
10512;DHT22;5304;48.604;2.096;2022-09-12T18:29:28;23.40;99.90
10512;DHT22;5304;48.604;2.096;2022-09-12T18:32:13;23.50;99.90
10512;DHT22;5304;48.604;2.096;2022-09-12T18:34:57;23.40;99.90
10512;DHT22;5304;48.604;2.096;2022-09-12T18:37:41;23.30;99.90
10512;DHT22;5304;48.604;2.096;2022-09-12T18:40:25;23.30;99.90
10512;DHT22;5304;48.604;2.096;2022-09-12T18:43:10;23.20;99.90
10512;DHT22;5304;48.604;2.096;2022-09-12T18:45:54;23.10;99.90
10512;DHT22;5304;48.604;2.096;2022-09-12T18:48:39;23.00;99.90
10512;DHT22;5304;48.604;2.096;2022-09-12T18:51:25;22.90;99.90
10512;DHT22;5304;48.604;2.096;2022-09-12T18:54:14;22.90;99.90
10512;DHT22;5304;48.604;2.096;2022-09-12T18:56:58;22.90;99.90
10512;DHT22;5304;48.604;2.096;2022-09-12T18:59:43;22.90;99.90
10512;DHT22;5304;48.604;2.096;2022-09-12T19:02:27;23.00;99.90
10512;DHT22;5304;48.604;2.096;2022-09-12T19:05:12;22.90;99.90
10512;DHT22;5304;48.604;2.096;2022-09-12T19:07:56;23.00;99.90
10512;DHT22;5304;48.604;2.096;2022-09-12T19:10:40;23.00;99.90
10512;DHT22;5304;48.604;2.096;2022-09-12T19:13:25;22.90;99.90
10512;DHT22;5304;48.604;2.096;2022-09-12T19:16:15;22.90;99.90
10512;DHT22;5304;48.604;2.096;2022-09-12T19:19:00;22.80;99.90
10512;DHT22;5304;48.604;2.096;2022-09-12T19:21:45;22.80;99.90
10512;DHT22;5304;48.604;2.096;2022-09-12T19:24:30;22.80;99.90
10512;DHT22;5304;48.604;2.096;2022-09-12T19:27:14;22.90;99.90
10512;DHT22;5304;48.604;2.096;2022-09-12T19:29:59;22.80;99.90
10512;DHT22;5304;48.604;2.096;2022-09-12T19:32:43;22.70;99.90
10512;DHT22;5304;48.604;2.096;2022-09-12T19:35:27;22.70;99.90
10512;DHT22;5304;48.604;2.096;2022-09-12T19:38:12;22.60;99.90
10512;DHT22;5304;48.604;2.096;2022-09-12T19:40:58;22.70;99.90
10512;DHT22;5304;48.604;2.096;2022-09-12T19:43:42;22.60;99.90
10512;DHT22;5304;48.604;2.096;2022-09-12T19:46:27;22.60;99.90
10512;DHT22;5304;48.604;2.096;2022-09-12T19:49:11;22.60;99.90
10512;DHT22;5304;48.604;2.096;2022-09-12T19:51:56;22.60;99.90
10512;DHT22;5304;48.604;2.096;2022-09-12T19:54:41;22.40;99.90
10512;DHT22;5304;48.604;2.096;2022-09-12T19:57:25;22.40;99.90
10512;DHT22;5304;48.604;2.096;2022-09-12T20:00:10;22.50;99.90
10512;DHT22;5304;48.604;2.096;2022-09-12T20:02:55;22.50;99.90
10512;DHT22;5304;48.604;2.096;2022-09-12T20:05:39;22.50;99.90
10512;DHT22;5304;48.604;2.096;2022-09-12T20:08:23;22.50;99.90
10512;DHT22;5304;48.604;2.096;2022-09-12T20:11:09;22.40;99.90
10512;DHT22;5304;48.604;2.096;2022-09-12T20:13:54;22.40;99.90
10512;DHT22;5304;48.604;2.096;2022-09-12T20:16:39;22.30;99.90
10512;DHT22;5304;48.604;2.096;2022-09-12T20:19:23;22.20;99.90